TimeEDT,TemperatureF,Dew PointF,Humidity,Sea Level PressureIn,VisibilityMPH,Wind Direction,Wind SpeedMPH,Gust SpeedMPH,PrecipitationIn,Events,Conditions,WindDirDegrees,DateUTC
12:13 AM,35.4,32.4,89,30.09,10.0,West,4.6,-,N/A,,Clear,280,2012-10-07 04:13:00
12:34 AM,34.2,32.0,92,30.09,10.0,West,4.6,-,N/A,,Clear,280,2012-10-07 04:34:00
12:54 AM,33.1,31.5,94,30.09,10.0,West,3.5,-,N/A,,Scattered Clouds,270,2012-10-07 04:54:00
1:13 AM,33.6,32.0,94,30.09,10.0,West,3.5,-,N/A,,Scattered Clouds,260,2012-10-07 05:13:00
1:34 AM,33.3,32.0,95,30.09,10.0,West,4.6,-,N/A,,Clear,270,2012-10-07 05:34:00
1:53 AM,32.9,31.8,96,30.10,10.0,Calm,Calm,-,N/A,,Clear,0,2012-10-07 05:53:00
2:14 AM,32.2,31.1,96,30.10,10.0,Calm,Calm,-,N/A,,Scattered Clouds,0,2012-10-07 06:14:00
2:34 AM,32.9,31.8,96,30.10,10.0,Calm,Calm,-,N/A,,Clear,0,2012-10-07 06:34:00
2:53 AM,30.0,28.4,94,30.10,10.0,Calm,Calm,-,N/A,,Clear,0,2012-10-07 06:53:00
3:14 AM,30.4,28.9,94,30.10,10.0,Calm,Calm,-,N/A,,Clear,0,2012-10-07 07:14:00
3:34 AM,29.3,28.0,95,30.09,10.0,Calm,Calm,-,N/A,,Mostly Cloudy,0,2012-10-07 07:34:00
3:53 AM,30.9,29.7,95,30.09,10.0,Calm,Calm,-,N/A,,Overcast,0,2012-10-07 07:53:00
4:14 AM,31.5,30.2,95,30.09,10.0,Calm,Calm,-,N/A,,Overcast,0,2012-10-07 08:14:00
4:34 AM,32.0,30.9,96,30.08,10.0,Calm,Calm,-,N/A,,Overcast,0,2012-10-07 08:34:00
4:53 AM,32.2,31.5,97,30.09,10.0,Calm,Calm,-,N/A,,Mostly Cloudy,0,2012-10-07 08:53:00
5:14 AM,30.7,29.1,94,30.08,10.0,Calm,Calm,-,N/A,,Clear,0,2012-10-07 09:14:00
5:34 AM,32.2,31.3,96,30.08,10.0,Calm,Calm,-,N/A,,Clear,0,2012-10-07 09:34:00
5:53 AM,29.8,28.0,93,30.08,10.0,Calm,Calm,-,N/A,,Clear,0,2012-10-07 09:53:00
6:14 AM,30.7,29.3,94,30.08,10.0,Calm,Calm,-,N/A,,Scattered Clouds,0,2012-10-07 10:14:00
6:34 AM,31.1,30.0,96,30.08,10.0,Calm,Calm,-,N/A,,Clear,0,2012-10-07 10:34:00
6:53 AM,28.8,27.3,94,30.08,10.0,Calm,Calm,-,N/A,,Clear,0,2012-10-07 10:53:00
7:14 AM,29.5,28.4,96,30.08,10.0,Calm,Calm,-,N/A,,Clear,0,2012-10-07 11:14:00
7:34 AM,31.1,29.5,94,30.09,10.0,Calm,Calm,-,N/A,,Mostly Cloudy,0,2012-10-07 11:34:00
7:54 AM,29.7,28.0,94,30.09,10.0,Calm,Calm,-,N/A,,Overcast,0,2012-10-07 11:54:00
8:14 AM,31.8,30.0,93,30.10,10.0,Calm,Calm,-,N/A,,Overcast,0,2012-10-07 12:14:00
8:34 AM,33.8,32.0,93,30.10,10.0,Calm,Calm,-,N/A,,Overcast,0,2012-10-07 12:34:00
8:54 AM,36.5,33.8,90,30.10,10.0,NW,3.5,-,N/A,,Overcast,310,2012-10-07 12:54:00
9:14 AM,39.7,35.8,86,30.11,10.0,NW,3.5,-,N/A,,Scattered Clouds,320,2012-10-07 13:14:00
9:34 AM,41.9,35.2,77,30.11,10.0,NW,5.8,-,N/A,,Clear,310,2012-10-07 13:34:00
9:54 AM,43.2,33.6,69,30.11,10.0,NW,8.1,-,N/A,,Clear,310,2012-10-07 13:54:00
10:14 AM,44.2,31.6,61,30.10,10.0,NW,8.1,-,N/A,,Clear,320,2012-10-07 14:14:00
10:33 AM,44.8,31.1,59,30.10,10.0,NW,9.2,-,N/A,,Clear,320,2012-10-07 14:33:00
10:54 AM,45.9,30.2,54,30.10,10.0,NW,8.1,-,N/A,,Clear,310,2012-10-07 14:54:00
11:14 AM,46.8,29.7,51,30.10,10.0,NNW,5.8,-,N/A,,Clear,340,2012-10-07 15:14:00
11:33 AM,46.9,28.6,49,30.10,10.0,NW,6.9,-,N/A,,Clear,310,2012-10-07 15:33:00
11:54 AM,47.7,28.0,47,30.10,10.0,WNW,10.4,-,N/A,,Clear,290,2012-10-07 15:54:00
12:14 PM,48.0,28.4,47,30.10,10.0,NW,4.6,-,N/A,,Clear,310,2012-10-07 16:14:00
12:33 PM,48.6,28.2,45,30.10,10.0,West,4.6,-,N/A,,Clear,260,2012-10-07 16:33:00
12:54 PM,49.6,29.3,46,30.10,10.0,WNW,9.2,-,N/A,,Scattered Clouds,300,2012-10-07 16:54:00
1:14 PM,48.6,28.0,45,30.10,10.0,WNW,5.8,-,N/A,,Clear,300,2012-10-07 17:14:00
1:33 PM,48.7,28.2,45,30.09,10.0,NNW,8.1,-,N/A,,Mostly Cloudy,330,2012-10-07 17:33:00
1:54 PM,49.1,27.3,43,30.08,10.0,West,9.2,-,N/A,,Mostly Cloudy,270,2012-10-07 17:54:00
2:14 PM,48.7,28.8,46,30.08,10.0,West,8.1,-,N/A,,Overcast,260,2012-10-07 18:14:00
2:34 PM,49.6,28.8,45,30.07,10.0,WNW,5.8,-,N/A,,Overcast,300,2012-10-07 18:34:00
2:54 PM,49.1,26.8,42,30.07,10.0,NW,3.5,-,N/A,,Overcast,320,2012-10-07 18:54:00
3:14 PM,49.3,26.6,41,30.07,10.0,WSW,6.9,-,N/A,,Overcast,250,2012-10-07 19:14:00
3:34 PM,49.3,25.7,40,30.07,10.0,WNW,9.2,-,N/A,,Overcast,300,2012-10-07 19:34:00
3:54 PM,49.8,27.9,43,30.07,10.0,West,8.1,-,N/A,,Overcast,280,2012-10-07 19:54:00
4:14 PM,49.1,26.8,42,30.07,10.0,SW,6.9,-,N/A,,Overcast,230,2012-10-07 20:14:00
4:34 PM,48.7,26.2,42,30.07,10.0,West,6.9,-,N/A,,Overcast,270,2012-10-07 20:34:00
4:54 PM,48.6,26.8,43,30.07,10.0,West,6.9,-,N/A,,Overcast,260,2012-10-07 20:54:00
5:14 PM,48.4,28.0,45,30.07,10.0,West,4.6,-,N/A,,Overcast,280,2012-10-07 21:14:00
5:34 PM,48.2,29.5,48,30.07,10.0,WSW,5.8,-,N/A,,Overcast,240,2012-10-07 21:34:00
5:54 PM,47.8,30.0,50,30.07,10.0,West,3.5,-,N/A,,Overcast,270,2012-10-07 21:54:00
6:15 PM,47.3,30.7,53,30.07,10.0,Calm,Calm,-,N/A,,Overcast,0,2012-10-07 22:15:00
6:34 PM,46.8,31.3,55,30.07,10.0,Calm,Calm,-,N/A,,Overcast,0,2012-10-07 22:34:00
6:54 PM,46.4,32.0,57,30.07,10.0,Calm,Calm,-,N/A,,Overcast,0,2012-10-07 22:54:00
7:14 PM,44.8,34.2,66,30.07,10.0,Calm,Calm,-,N/A,,Overcast,0,2012-10-07 23:14:00
7:34 PM,44.8,33.8,65,30.07,10.0,Calm,Calm,-,N/A,,Overcast,0,2012-10-07 23:34:00
7:54 PM,44.2,35.1,70,30.08,10.0,West,3.5,-,N/A,,Overcast,280,2012-10-07 23:54:00
8:14 PM,44.1,35.1,71,30.08,10.0,Calm,Calm,-,N/A,,Overcast,0,2012-10-08 00:14:00
8:34 PM,43.9,34.2,69,30.09,10.0,WSW,3.5,-,N/A,,Overcast,240,2012-10-08 00:34:00
8:54 PM,43.3,34.0,70,30.09,10.0,Calm,Calm,-,N/A,,Overcast,0,2012-10-08 00:54:00
9:14 PM,43.2,35.1,73,30.09,10.0,SW,4.6,-,N/A,,Overcast,220,2012-10-08 01:14:00
9:34 PM,43.9,34.5,70,30.09,10.0,WSW,4.6,-,N/A,,Overcast,240,2012-10-08 01:34:00
9:55 PM,42.8,34.0,71,30.09,10.0,WSW,3.5,-,N/A,,Overcast,240,2012-10-08 01:55:00
10:14 PM,41.7,33.8,73,30.09,10.0,SW,3.5,-,N/A,,Mostly Cloudy,230,2012-10-08 02:14:00
10:34 PM,40.8,33.8,76,30.09,10.0,Calm,Calm,-,N/A,,Scattered Clouds,0,2012-10-08 02:34:00
10:55 PM,40.1,34.0,79,30.10,10.0,SW,3.5,-,N/A,,Mostly Cloudy,220,2012-10-08 02:55:00
11:14 PM,39.7,33.8,79,30.10,10.0,SW,3.5,-,N/A,,Scattered Clouds,230,2012-10-08 03:14:00
11:34 PM,40.1,35.1,82,30.10,10.0,SW,3.5,-,N/A,,Mostly Cloudy,230,2012-10-08 03:34:00
11:54 PM,39.2,34.3,83,30.11,10.0,WSW,4.6,-,N/A,,Scattered Clouds,240,2012-10-08 03:54:00